Time;durP1;ratioP1;P1;durP2;ratioP2;P2;SDS_P1;SDS_P2;PMS_P1;PMS_P2;Temp;Humidity;BMP_temperature;BMP_pressure;BME280_temperature;BME280_humidity;BME280_pressure;Samples;Min_cycle;Max_cycle;Signal;HPM_P1;HPM_P2
2022/03/15 00:00:48;;;;;;;44.50;22.25;;;;;;;;;;5077033;28;20020;-75
2022/03/15 00:03:14;;;;;;;44.88;21.67;;;;;;;;;;5094502;28;20482;-75
2022/03/15 00:05:41;;;;;;;50.08;22.80;;;;;;;;;;5095228;28;20030;-75
2022/03/15 00:08:07;;;;;;;47.17;21.25;;;;;;;;;;5098217;28;20026;-75
2022/03/15 00:10:34;;;;;;;47.90;19.85;;;;;;;;;;5098098;28;20020;-75
2022/03/15 00:13:00;;;;;;;57.72;22.20;;;;;;;;;;5091986;28;20483;-75
2022/03/15 00:15:27;;;;;;;60.20;21.17;;;;;;;;;;5092535;28;20032;-75
2022/03/15 00:17:54;;;;;;;47.58;20.20;;;;;;;;;;5089735;28;20104;-75
2022/03/15 00:20:22;;;;;;;49.72;20.77;;;;;;;;;;5108728;28;20024;-75
2022/03/15 00:22:49;;;;;;;54.13;21.40;;;;;;;;;;5095336;28;20081;-75
2022/03/15 00:25:16;;;;;;;52.92;21.13;;;;;;;;;;5095000;28;20507;-74
2022/03/15 00:27:46;;;;;;;55.35;21.75;;;;;;;;;;5094196;28;20023;-74
2022/03/15 00:30:14;;;;;;;60.65;25.98;;;;;;;;;;5093745;28;20509;-74
2022/03/15 00:32:41;;;;;;;51.60;24.83;;;;;;;;;;5076869;28;20024;-73
2022/03/15 00:35:10;;;;;;;58.50;26.88;;;;;;;;;;5094591;28;20039;-74
2022/03/15 00:37:36;;;;;;;57.95;26.77;;;;;;;;;;5094236;28;20371;-74
2022/03/15 00:40:04;;;;;;;67.68;30.17;;;;;;;;;;5095722;28;20036;-74
2022/03/15 00:42:30;;;;;;;62.55;29.25;;;;;;;;;;5094852;28;20484;-74
2022/03/15 00:45:01;;;;;;;57.75;31.42;;;;;;;;;;5083701;28;20056;-74
2022/03/15 00:47:28;;;;;;;65.18;30.45;;;;;;;;;;5088011;28;20028;-74
2022/03/15 00:49:54;;;;;;;57.92;30.20;;;;;;;;;;5094615;28;20020;-74
2022/03/15 00:52:21;;;;;;;59.88;30.55;;;;;;;;;;5090259;28;20027;-75
2022/03/15 00:54:47;;;;;;;58.00;27.23;;;;;;;;;;5092951;28;20382;-74
2022/03/15 00:57:14;;;;;;;56.20;28.63;;;;;;;;;;5094014;28;20382;-74
2022/03/15 00:59:40;;;;;;;47.78;26.10;;;;;;;;;;5093612;28;20507;-74
2022/03/15 01:02:07;;;;;;;66.45;32.58;;;;;;;;;;5093268;28;20028;-74
2022/03/15 01:04:33;;;;;;;68.30;32.25;;;;;;;;;;5093382;28;20478;-76
2022/03/15 01:06:59;;;;;;;58.65;28.63;;;;;;;;;;5092911;28;20481;-75
2022/03/15 01:09:25;;;;;;;63.92;30.70;;;;;;;;;;5091325;28;20016;-74
2022/03/15 01:11:52;;;;;;;60.53;28.88;;;;;;;;;;5072664;28;20028;-73
2022/03/15 01:14:18;;;;;;;64.07;32.00;;;;;;;;;;5093198;28;20052;-78
2022/03/15 01:16:45;;;;;;;58.00;30.83;;;;;;;;;;5093974;28;20020;-74
2022/03/15 01:19:11;;;;;;;61.55;29.92;;;;;;;;;;5094685;28;20036;-73
2022/03/15 01:21:38;;;;;;;56.83;25.73;;;;;;;;;;5094268;28;20051;-74
2022/03/15 01:24:08;;;;;;;56.38;26.92;;;;;;;;;;5093919;28;20066;-74
2022/03/15 01:26:37;;;;;;;54.15;27.52;;;;;;;;;;5093432;28;20031;-73
2022/03/15 01:29:04;;;;;;;55.90;29.13;;;;;;;;;;5092690;28;20501;-74
2022/03/15 01:31:30;;;;;;;58.15;26.80;;;;;;;;;;5092802;28;20509;-76
2022/03/15 01:33:57;;;;;;;62.90;28.40;;;;;;;;;;5094307;28;20024;-75
2022/03/15 01:36:23;;;;;;;60.13;28.30;;;;;;;;;;5093669;28;20016;-75
2022/03/15 01:38:53;;;;;;;68.65;38.22;;;;;;;;;;5093685;28;20024;-75
2022/03/15 01:41:22;;;;;;;74.10;36.15;;;;;;;;;;5092844;28;20028;-76
2022/03/15 01:43:49;;;;;;;68.35;35.30;;;;;;;;;;5093259;28;20044;-75
2022/03/15 01:46:16;;;;;;;83.13;42.30;;;;;;;;;;5093316;28;20512;-74
2022/03/15 01:48:43;;;;;;;77.38;39.65;;;;;;;;;;5092502;28;20031;-75
2022/03/15 01:51:10;;;;;;;83.20;39.28;;;;;;;;;;5093935;28;20024;-74
2022/03/15 01:53:37;;;;;;;89.07;44.83;;;;;;;;;;5092095;28;20024;-76
2022/03/15 01:56:04;;;;;;;84.28;40.85;;;;;;;;;;5089594;28;20047;-76
2022/03/15 01:58:31;;;;;;;71.40;41.60;;;;;;;;;;5087050;28;20032;-76
2022/03/15 02:00:57;;;;;;;94.72;47.28;;;;;;;;;;5088727;28;20121;-75
2022/03/15 02:03:24;;;;;;;91.30;45.80;;;;;;;;;;5085395;28;20032;-75
2022/03/15 02:05:50;;;;;;;87.88;44.10;;;;;;;;;;5084817;28;20021;-75
2022/03/15 02:08:16;;;;;;;82.65;44.38;;;;;;;;;;5085753;28;20024;-74
2022/03/15 02:10:43;;;;;;;101.43;50.20;;;;;;;;;;5083882;28;20478;-74
2022/03/15 02:13:10;;;;;;;90.05;48.80;;;;;;;;;;5084028;28;20024;-74
2022/03/15 02:15:37;;;;;;;78.68;46.10;;;;;;;;;;5084530;28;20028;-75
2022/03/15 02:18:03;;;;;;;99.32;50.38;;;;;;;;;;5081156;28;20016;-75
2022/03/15 02:20:30;;;;;;;92.70;48.30;;;;;;;;;;5085989;28;20031;-75
2022/03/15 02:22:57;;;;;;;92.82;47.58;;;;;;;;;;5088522;28;20676;-75
2022/03/15 02:25:24;;;;;;;84.43;46.42;;;;;;;;;;5087394;28;20027;-74
2022/03/15 02:27:51;;;;;;;95.20;52.72;;;;;;;;;;5086622;28;20414;-74
2022/03/15 02:30:17;;;;;;;92.53;47.83;;;;;;;;;;5083244;28;20493;-76
2022/03/15 02:32:47;;;;;;;84.90;46.88;;;;;;;;;;5082351;28;20030;-75
2022/03/15 02:35:15;;;;;;;91.32;45.67;;;;;;;;;;5083764;28;20027;-75
2022/03/15 02:37:41;;;;;;;105.03;52.63;;;;;;;;;;5087549;28;20038;-74
2022/03/15 02:40:08;;;;;;;92.88;47.35;;;;;;;;;;5087374;28;20486;-75
2022/03/15 02:42:35;;;;;;;106.63;52.63;;;;;;;;;;5087279;28;20051;-75
2022/03/15 02:45:02;;;;;;;93.75;46.28;;;;;;;;;;5084953;28;20147;-74
2022/03/15 02:47:28;;;;;;;104.63;51.97;;;;;;;;;;5077630;28;20133;-74
2022/03/15 02:49:54;;;;;;;120.65;62.83;;;;;;;;;;5082910;28;20052;-75
2022/03/15 02:52:28;;;;;;;115.97;59.78;;;;;;;;;;5080342;28;20420;-75
2022/03/15 02:54:55;;;;;;;106.60;53.15;;;;;;;;;;5093147;28;20034;-74
2022/03/15 02:57:24;;;;;;;109.63;52.78;;;;;;;;;;5088193;28;20032;-75
2022/03/15 02:59:51;;;;;;;106.55;51.50;;;;;;;;;;5085607;28;20058;-75
2022/03/15 03:02:18;;;;;;;93.75;48.97;;;;;;;;;;5091008;28;20020;-75
2022/03/15 03:04:44;;;;;;;96.72;48.85;;;;;;;;;;5088187;28;20023;-73
2022/03/15 03:07:12;;;;;;;99.65;49.53;;;;;;;;;;5089811;28;20066;-75
2022/03/15 03:09:38;;;;;;;102.72;51.85;;;;;;;;;;5089562;28;20032;-76
2022/03/15 03:12:05;;;;;;;96.90;51.13;;;;;;;;;;5087561;28;20168;-76
2022/03/15 03:14:34;;;;;;;91.90;49.22;;;;;;;;;;5085822;28;20040;-75
2022/03/15 03:17:00;;;;;;;95.50;46.53;;;;;;;;;;5087396;28;20125;-75
2022/03/15 03:19:27;;;;;;;98.88;50.33;;;;;;;;;;5083585;28;20039;-76
2022/03/15 03:21:53;;;;;;;97.65;48.15;;;;;;;;;;5079250;28;20440;-76
2022/03/15 03:24:24;;;;;;;109.03;51.95;;;;;;;;;;5085662;28;20031;-76
2022/03/15 03:26:50;;;;;;;107.57;52.88;;;;;;;;;;5068497;28;20092;-76
2022/03/15 03:29:18;;;;;;;109.93;55.03;;;;;;;;;;5086165;28;20073;-75
2022/03/15 03:31:44;;;;;;;99.82;51.97;;;;;;;;;;5084148;28;20032;-76
2022/03/15 03:34:11;;;;;;;103.47;51.50;;;;;;;;;;5087826;28;21086;-77
2022/03/15 03:36:39;;;;;;;87.70;50.13;;;;;;;;;;5088958;28;20062;-76
2022/03/15 03:39:06;;;;;;;95.50;48.65;;;;;;;;;;5070229;28;20070;-77
2022/03/15 03:41:33;;;;;;;98.05;50.58;;;;;;;;;;5088615;28;20035;-76
2022/03/15 03:44:00;;;;;;;99.57;51.30;;;;;;;;;;5086076;28;20433;-75
2022/03/15 03:46:27;;;;;;;95.40;51.88;;;;;;;;;;5067036;28;20394;-76
2022/03/15 03:48:56;;;;;;;102.63;50.90;;;;;;;;;;5084135;28;20526;-76
2022/03/15 03:51:22;;;;;;;114.82;58.83;;;;;;;;;;5089017;28;20110;-76
2022/03/15 03:53:49;;;;;;;122.10;60.05;;;;;;;;;;5080917;28;20381;-77
2022/03/15 03:56:15;;;;;;;135.35;62.78;;;;;;;;;;5085730;28;20099;-77
2022/03/15 03:58:41;;;;;;;136.70;63.38;;;;;;;;;;5086932;28;20019;-76
2022/03/15 04:01:08;;;;;;;124.55;61.03;;;;;;;;;;5067699;28;20462;-77
2022/03/15 04:03:34;;;;;;;104.43;53.80;;;;;;;;;;5085446;28;20537;-76
2022/03/15 04:06:06;;;;;;;93.97;46.53;;;;;;;;;;5088486;27;20070;-75
2022/03/15 04:08:33;;;;;;;65.00;32.78;;;;;;;;;;5088276;28;20031;-74
2022/03/15 04:10:59;;;;;;;41.00;25.00;;;;;;;;;;5085998;28;20458;-74
2022/03/15 04:13:26;;;;;;;35.63;22.20;;;;;;;;;;5088372;28;20410;-75
2022/03/15 04:15:52;;;;;;;31.65;21.58;;;;;;;;;;5082942;28;20043;-75
2022/03/15 04:18:18;;;;;;;40.47;23.92;;;;;;;;;;5088646;28;20052;-76
2022/03/15 04:20:45;;;;;;;37.17;21.77;;;;;;;;;;5086128;28;20046;-75
2022/03/15 04:23:11;;;;;;;44.60;24.00;;;;;;;;;;5080518;28;20085;-75
2022/03/15 04:25:40;;;;;;;37.60;21.30;;;;;;;;;;5077433;28;20023;-76
2022/03/15 04:28:07;;;;;;;35.53;21.17;;;;;;;;;;5060260;28;20039;-76
2022/03/15 04:30:34;;;;;;;41.70;22.13;;;;;;;;;;5078941;28;20060;-75
2022/03/15 04:33:04;;;;;;;35.65;20.17;;;;;;;;;;5083409;28;20086;-75
2022/03/15 04:35:30;;;;;;;33.92;18.85;;;;;;;;;;5082893;28;20101;-75
2022/03/15 04:38:03;;;;;;;33.90;19.08;;;;;;;;;;5086546;28;20024;-77
2022/03/15 04:40:29;;;;;;;32.25;17.77;;;;;;;;;;5084392;28;20032;-75
2022/03/15 04:42:56;;;;;;;32.40;19.00;;;;;;;;;;5088436;28;20037;-75
2022/03/15 04:45:24;;;;;;;36.75;21.05;;;;;;;;;;5081195;28;20397;-75
2022/03/15 04:47:50;;;;;;;40.65;21.75;;;;;;;;;;5064746;28;20501;-75
2022/03/15 04:50:20;;;;;;;46.13;25.08;;;;;;;;;;5092101;28;20024;-75
2022/03/15 04:52:47;;;;;;;48.80;28.45;;;;;;;;;;5082533;28;20024;-74
2022/03/15 04:55:13;;;;;;;54.83;28.88;;;;;;;;;;5080984;28;20032;-75
2022/03/15 04:57:40;;;;;;;63.75;33.42;;;;;;;;;;5078373;28;20148;-76
2022/03/15 05:00:09;;;;;;;65.63;34.67;;;;;;;;;;5078278;28;20140;-75
2022/03/15 05:02:36;;;;;;;65.68;34.67;;;;;;;;;;5081846;28;20024;-74
2022/03/15 05:05:03;;;;;;;56.33;33.83;;;;;;;;;;5078316;28;20020;-75
2022/03/15 05:07:32;;;;;;;56.03;31.38;;;;;;;;;;5085685;28;20024;-75
2022/03/15 05:12:43;;;;;;;47.00;30.52;;;;;;;;;;5084949;28;20105;-75
2022/03/15 05:15:10;;;;;;;55.42;33.20;;;;;;;;;;5082493;28;20060;-75
2022/03/15 05:17:36;;;;;;;50.17;31.88;;;;;;;;;;5085456;28;20035;-75
2022/03/15 05:20:06;;;;;;;58.90;34.95;;;;;;;;;;5085961;28;20071;-75
2022/03/15 05:22:32;;;;;;;57.55;33.97;;;;;;;;;;5083893;28;20028;-77
2022/03/15 05:24:59;;;;;;;60.85;36.28;;;;;;;;;;5088180;28;20035;-75
2022/03/15 05:27:26;;;;;;;56.60;32.17;;;;;;;;;;5080501;28;20115;-76
2022/03/15 05:29:53;;;;;;;43.50;29.17;;;;;;;;;;5081005;28;20176;-75
2022/03/15 05:32:19;;;;;;;47.97;32.28;;;;;;;;;;5085334;28;20075;-77
2022/03/15 05:34:46;;;;;;;48.55;31.27;;;;;;;;;;5085023;28;20107;-76
2022/03/15 05:37:12;;;;;;;50.88;32.92;;;;;;;;;;5077720;28;20044;-75
2022/03/15 05:39:39;;;;;;;49.05;31.92;;;;;;;;;;5080937;28;20039;-76
2022/03/15 05:42:05;;;;;;;48.88;32.05;;;;;;;;;;5081234;28;20439;-76
2022/03/15 05:44:31;;;;;;;45.45;29.02;;;;;;;;;;5085046;28;20040;-76
2022/03/15 05:46:58;;;;;;;43.25;27.73;;;;;;;;;;5076223;28;20051;-76
2022/03/15 05:49:24;;;;;;;43.90;27.88;;;;;;;;;;5076907;28;20024;-76
2022/03/15 05:51:50;;;;;;;36.08;23.38;;;;;;;;;;5081944;28;20119;-76
2022/03/15 05:54:16;;;;;;;46.40;29.48;;;;;;;;;;5082812;28;20539;-76
2022/03/15 05:56:43;;;;;;;43.92;27.45;;;;;;;;;;5079327;28;20525;-76
2022/03/15 05:59:09;;;;;;;44.28;27.38;;;;;;;;;;5081849;28;20031;-76
2022/03/15 06:01:36;;;;;;;44.75;26.25;;;;;;;;;;5080919;28;20020;-77
2022/03/15 06:04:05;;;;;;;36.97;26.38;;;;;;;;;;5083770;28;20024;-76
2022/03/15 06:06:31;;;;;;;33.72;24.42;;;;;;;;;;5080890;28;20440;-76
2022/03/15 06:08:57;;;;;;;39.72;26.23;;;;;;;;;;5083404;28;20028;-77
2022/03/15 06:11:23;;;;;;;50.97;30.27;;;;;;;;;;5081142;28;20381;-76
2022/03/15 06:13:50;;;;;;;52.05;35.38;;;;;;;;;;5075796;28;20043;-77
2022/03/15 06:16:16;;;;;;;55.90;37.40;;;;;;;;;;5080135;28;20133;-77
2022/03/15 06:18:42;;;;;;;62.00;39.53;;;;;;;;;;5080827;28;20024;-77
2022/03/15 06:21:12;;;;;;;54.58;37.70;;;;;;;;;;5079577;28;20028;-75
2022/03/15 06:23:38;;;;;;;55.25;35.17;;;;;;;;;;5062080;28;20138;-75
2022/03/15 06:26:04;;;;;;;46.08;29.63;;;;;;;;;;5081664;28;20165;-76
2022/03/15 06:28:30;;;;;;;37.80;26.40;;;;;;;;;;5079676;28;20370;-76
2022/03/15 06:31:14;;;;;;;43.75;26.65;;;;;;;;;;5082401;28;20020;-77
2022/03/15 06:33:42;;;;;;;35.40;25.73;;;;;;;;;;5067591;28;20601;-75
2022/03/15 06:36:15;;;;;;;43.58;29.67;;;;;;;;;;5080358;28;20043;-77
2022/03/15 06:38:41;;;;;;;39.00;28.85;;;;;;;;;;5061611;28;20485;-75
2022/03/15 06:41:10;;;;;;;42.35;28.63;;;;;;;;;;5076180;28;20025;-75
2022/03/15 06:43:38;;;;;;;38.83;26.13;;;;;;;;;;5077935;28;20040;-76
2022/03/15 06:46:04;;;;;;;40.20;29.63;;;;;;;;;;5073836;28;20032;-77
2022/03/15 06:48:30;;;;;;;43.03;28.80;;;;;;;;;;5079445;28;20433;-75
2022/03/15 06:50:57;;;;;;;44.67;30.98;;;;;;;;;;5080255;28;20115;-75
2022/03/15 06:53:23;;;;;;;45.47;30.35;;;;;;;;;;5082069;28;20595;-76
2022/03/15 06:55:50;;;;;;;45.08;28.20;;;;;;;;;;5083659;28;20701;-76
2022/03/15 06:58:19;;;;;;;42.20;28.40;;;;;;;;;;5077745;28;20040;-76
2022/03/15 07:00:47;;;;;;;48.90;29.58;;;;;;;;;;5077627;28;20156;-77
2022/03/15 07:03:14;;;;;;;51.05;31.27;;;;;;;;;;5082587;28;20044;-76
2022/03/15 07:05:40;;;;;;;45.75;30.02;;;;;;;;;;5072080;28;20111;-75
2022/03/15 07:08:06;;;;;;;45.15;29.88;;;;;;;;;;5072349;28;20028;-76
2022/03/15 07:10:33;;;;;;;45.63;29.80;;;;;;;;;;5080521;28;20127;-75
2022/03/15 07:13:00;;;;;;;51.47;31.77;;;;;;;;;;5076022;28;20027;-74
2022/03/15 07:15:27;;;;;;;50.25;32.45;;;;;;;;;;5074305;28;20025;-76
2022/03/15 07:17:54;;;;;;;57.03;33.90;;;;;;;;;;5058378;28;20032;-77
2022/03/15 07:20:20;;;;;;;54.15;35.67;;;;;;;;;;5079775;28;20032;-77
2022/03/15 07:22:47;;;;;;;57.92;37.35;;;;;;;;;;5082770;28;20066;-77
2022/03/15 07:25:14;;;;;;;66.25;41.30;;;;;;;;;;5076076;28;20031;-76
2022/03/15 07:27:41;;;;;;;66.03;39.20;;;;;;;;;;5079822;28;20111;-76
2022/03/15 07:30:07;;;;;;;63.45;39.08;;;;;;;;;;5078597;28;20123;-77
2022/03/15 07:32:34;;;;;;;58.97;35.15;;;;;;;;;;5076851;28;20745;-76
2022/03/15 07:35:00;;;;;;;49.30;31.98;;;;;;;;;;5081993;28;20039;-76
2022/03/15 07:37:26;;;;;;;52.97;33.53;;;;;;;;;;5077497;28;20091;-77
2022/03/15 07:39:56;;;;;;;55.50;34.45;;;;;;;;;;5083170;28;20465;-77
2022/03/15 07:42:23;;;;;;;50.22;32.47;;;;;;;;;;5076044;28;20643;-76
2022/03/15 07:44:49;;;;;;;47.78;32.45;;;;;;;;;;5080164;28;20118;-76
2022/03/15 07:47:16;;;;;;;44.25;31.35;;;;;;;;;;5082628;28;20127;-76
2022/03/15 07:49:42;;;;;;;43.33;30.95;;;;;;;;;;5083032;28;20048;-77
2022/03/15 07:52:10;;;;;;;44.00;29.15;;;;;;;;;;5083748;28;20028;-77
2022/03/15 07:54:36;;;;;;;38.35;28.23;;;;;;;;;;5081475;28;20477;-76
2022/03/15 07:57:03;;;;;;;42.70;29.67;;;;;;;;;;5081168;28;20028;-76
2022/03/15 07:59:32;;;;;;;42.88;30.10;;;;;;;;;;5080687;28;20498;-76
2022/03/15 08:01:58;;;;;;;39.38;28.70;;;;;;;;;;5080733;28;20032;-77
2022/03/15 08:04:25;;;;;;;39.83;28.50;;;;;;;;;;5079453;28;20055;-76
2022/03/15 08:06:54;;;;;;;38.47;27.17;;;;;;;;;;5049169;28;20369;-75
2022/03/15 08:09:20;;;;;;;40.92;29.60;;;;;;;;;;5082986;28;20028;-76
2022/03/15 08:11:46;;;;;;;39.15;27.95;;;;;;;;;;5084168;28;20029;-77
2022/03/15 08:14:13;;;;;;;38.53;26.52;;;;;;;;;;5078569;28;20506;-76
2022/03/15 08:16:39;;;;;;;33.72;26.08;;;;;;;;;;5082047;28;20414;-75
2022/03/15 08:19:06;;;;;;;32.30;25.77;;;;;;;;;;5078815;28;21878;-76
2022/03/15 08:21:36;;;;;;;35.00;26.50;;;;;;;;;;5084291;28;20400;-75
2022/03/15 08:24:02;;;;;;;33.00;27.10;;;;;;;;;;5081004;28;21872;-76
2022/03/15 08:26:28;;;;;;;41.20;28.98;;;;;;;;;;5076217;28;20028;-74
2022/03/15 08:28:54;;;;;;;38.90;28.88;;;;;;;;;;5080823;28;20110;-76
2022/03/15 08:31:21;;;;;;;30.13;20.60;;;;;;;;;;5064219;28;20138;-76
2022/03/15 08:33:47;;;;;;;22.77;15.32;;;;;;;;;;5084576;28;20107;-75
2022/03/15 08:36:14;;;;;;;21.63;13.32;;;;;;;;;;5078566;28;20070;-76
2022/03/15 08:38:41;;;;;;;24.83;15.30;;;;;;;;;;5080216;28;20316;-75
2022/03/15 08:41:08;;;;;;;18.35;13.55;;;;;;;;;;5080001;28;20036;-76
2022/03/15 08:43:35;;;;;;;18.08;13.50;;;;;;;;;;5078452;28;20570;-76
2022/03/15 08:46:01;;;;;;;20.20;14.73;;;;;;;;;;5072870;28;20024;-75
2022/03/15 08:48:27;;;;;;;21.05;14.25;;;;;;;;;;5071364;28;20035;-76
2022/03/15 08:50:54;;;;;;;19.63;12.05;;;;;;;;;;5063407;28;20134;-76
2022/03/15 08:53:21;;;;;;;14.52;12.27;;;;;;;;;;5074478;28;20027;-77
2022/03/15 08:55:47;;;;;;;19.63;13.02;;;;;;;;;;5079637;28;20060;-76
2022/03/15 08:58:14;;;;;;;18.90;12.68;;;;;;;;;;5082326;28;20040;-76
2022/03/15 09:00:40;;;;;;;18.65;12.15;;;;;;;;;;5083815;28;20028;-77
2022/03/15 09:03:07;;;;;;;15.02;11.10;;;;;;;;;;5083664;28;20028;-76
2022/03/15 09:05:36;;;;;;;14.57;11.57;;;;;;;;;;5083378;28;20103;-77
2022/03/15 09:08:02;;;;;;;14.50;11.30;;;;;;;;;;5083024;28;20035;-76
2022/03/15 09:10:28;;;;;;;20.10;13.77;;;;;;;;;;5079530;28;20131;-76
2022/03/15 09:12:54;;;;;;;19.23;13.98;;;;;;;;;;5082487;28;20035;-77
2022/03/15 09:15:25;;;;;;;16.75;12.68;;;;;;;;;;5081075;28;20406;-76
2022/03/15 09:17:52;;;;;;;13.00;9.88;;;;;;;;;;5055743;28;20470;-77
2022/03/15 09:20:19;;;;;;;12.68;9.82;;;;;;;;;;5082256;28;20355;-77
2022/03/15 09:22:45;;;;;;;13.20;11.40;;;;;;;;;;5077121;28;20480;-78
2022/03/15 09:25:12;;;;;;;18.25;13.63;;;;;;;;;;5069944;28;20032;-77
2022/03/15 09:27:38;;;;;;;19.25;15.35;;;;;;;;;;5089437;28;20050;-77
2022/03/15 09:30:14;;;;;;;18.77;14.48;;;;;;;;;;5081788;28;20021;-78
2022/03/15 09:32:40;;;;;;;18.20;15.45;;;;;;;;;;5080982;28;20535;-78
2022/03/15 09:35:06;;;;;;;19.83;15.02;;;;;;;;;;5087124;28;20038;-78
2022/03/15 09:37:33;;;;;;;19.08;15.20;;;;;;;;;;5063582;28;20409;-78
2022/03/15 09:39:59;;;;;;;21.30;16.13;;;;;;;;;;5068407;28;20343;-77
2022/03/15 09:42:29;;;;;;;19.05;17.00;;;;;;;;;;5054011;28;20032;-78
2022/03/15 09:44:57;;;;;;;30.30;22.52;;;;;;;;;;5070422;28;20052;-77
2022/03/15 09:47:25;;;;;;;36.17;27.00;;;;;;;;;;5070347;28;20028;-77
2022/03/15 09:50:03;;;;;;;18.95;16.05;;;;;;;;;;5072892;28;20024;-78
2022/03/15 09:52:30;;;;;;;17.35;15.23;;;;;;;;;;5077615;28;20474;-77
2022/03/15 09:54:58;;;;;;;21.38;19.10;;;;;;;;;;5078551;28;20409;-78
2022/03/15 09:57:25;;;;;;;24.40;19.50;;;;;;;;;;5075626;28;20429;-77
2022/03/15 09:59:52;;;;;;;19.50;17.42;;;;;;;;;;5084592;28;20046;-77
2022/03/15 10:02:18;;;;;;;19.38;16.23;;;;;;;;;;5082938;28;20032;-78
2022/03/15 10:04:45;;;;;;;21.05;18.80;;;;;;;;;;5085429;28;20077;-77
2022/03/15 10:07:12;;;;;;;20.50;16.23;;;;;;;;;;5086451;28;20040;-78
2022/03/15 10:09:39;;;;;;;20.27;17.40;;;;;;;;;;5082049;28;20414;-78
2022/03/15 10:12:07;;;;;;;21.17;18.67;;;;;;;;;;5084949;28;20052;-79
2022/03/15 10:14:44;;;;;;;23.85;19.80;;;;;;;;;;5082972;28;20387;-78
2022/03/15 10:17:12;;;;;;;26.65;23.77;;;;;;;;;;5081303;28;20348;-76
2022/03/15 10:19:39;;;;;;;33.53;27.25;;;;;;;;;;5080602;28;20318;-77
2022/03/15 10:22:12;;;;;;;29.73;24.65;;;;;;;;;;5076234;28;20477;-76
2022/03/15 10:24:47;;;;;;;28.50;23.90;;;;;;;;;;5061214;28;20529;-77
2022/03/15 10:27:15;;;;;;;26.05;22.98;;;;;;;;;;5079107;28;20032;-75
2022/03/15 10:29:42;;;;;;;26.33;22.35;;;;;;;;;;5057780;28;20493;-76
2022/03/15 10:32:09;;;;;;;23.08;19.60;;;;;;;;;;5057103;28;20211;-76
2022/03/15 10:34:35;;;;;;;24.15;20.52;;;;;;;;;;5077551;28;20036;-76
2022/03/15 10:37:01;;;;;;;26.17;20.70;;;;;;;;;;5079345;28;20033;-76
2022/03/15 10:39:28;;;;;;;20.85;18.20;;;;;;;;;;5080094;28;20459;-76
2022/03/15 10:41:59;;;;;;;18.73;15.57;;;;;;;;;;5081385;28;20088;-76
2022/03/15 10:44:28;;;;;;;16.95;14.60;;;;;;;;;;5076836;28;20055;-77
2022/03/15 10:46:59;;;;;;;18.08;14.13;;;;;;;;;;5078001;28;20051;-77
2022/03/15 10:49:25;;;;;;;18.67;15.13;;;;;;;;;;5078302;28;20025;-76
2022/03/15 10:51:51;;;;;;;18.63;15.60;;;;;;;;;;5080185;28;20658;-75
2022/03/15 10:54:17;;;;;;;20.77;15.95;;;;;;;;;;5079815;28;20039;-76
2022/03/15 10:56:52;;;;;;;17.10;13.93;;;;;;;;;;5079823;28;20489;-76
2022/03/15 10:59:18;;;;;;;14.30;12.65;;;;;;;;;;5057909;28;20057;-77
2022/03/15 11:01:51;;;;;;;15.00;13.05;;;;;;;;;;5078091;28;20028;-76
2022/03/15 11:04:18;;;;;;;16.08;13.95;;;;;;;;;;5075986;28;20028;-76
2022/03/15 11:06:48;;;;;;;18.05;13.95;;;;;;;;;;5077822;28;20102;-76
2022/03/15 11:09:19;;;;;;;22.27;16.17;;;;;;;;;;5074122;28;20020;-77
2022/03/15 11:11:47;;;;;;;24.85;17.67;;;;;;;;;;5060427;28;20446;-76
2022/03/15 11:14:13;;;;;;;26.02;20.90;;;;;;;;;;5073246;28;20750;-76
2022/03/15 11:16:41;;;;;;;24.90;19.58;;;;;;;;;;5082625;28;20040;-75
2022/03/15 11:19:08;;;;;;;19.88;16.58;;;;;;;;;;5066130;28;20045;-75
2022/03/15 11:21:35;;;;;;;22.35;17.42;;;;;;;;;;5083722;28;20028;-75
2022/03/15 11:24:02;;;;;;;19.95;16.20;;;;;;;;;;5082339;28;20040;-76
2022/03/15 11:26:33;;;;;;;20.05;17.10;;;;;;;;;;5085220;28;20027;-75
2022/03/15 11:28:59;;;;;;;28.30;19.33;;;;;;;;;;5088166;28;20051;-75
2022/03/15 11:31:25;;;;;;;24.20;17.70;;;;;;;;;;5089184;28;20020;-75
2022/03/15 11:33:54;;;;;;;22.38;18.20;;;;;;;;;;5089612;28;20031;-75
2022/03/15 11:36:23;;;;;;;25.20;18.77;;;;;;;;;;5085027;28;20181;-75
2022/03/15 11:38:51;;;;;;;29.75;20.60;;;;;;;;;;5085683;28;20165;-75
2022/03/15 11:41:18;;;;;;;26.88;20.75;;;;;;;;;;5081350;28;20059;-75
2022/03/15 11:43:50;;;;;;;25.98;19.90;;;;;;;;;;5083869;28;20309;-77
2022/03/15 11:46:28;;;;;;;24.17;19.20;;;;;;;;;;5086360;28;20041;-76
2022/03/15 11:49:13;;;;;;;24.83;19.33;;;;;;;;;;5081276;28;20027;-75
2022/03/15 11:51:39;;;;;;;23.80;19.20;;;;;;;;;;5078749;28;20047;-76
2022/03/15 11:54:10;;;;;;;23.02;18.20;;;;;;;;;;5081704;28;20024;-75
2022/03/15 11:56:44;;;;;;;19.95;15.80;;;;;;;;;;5084006;28;20020;-74
2022/03/15 11:59:11;;;;;;;16.55;13.20;;;;;;;;;;5086500;28;20115;-76
2022/03/15 12:01:44;;;;;;;16.27;13.95;;;;;;;;;;5082772;28;20127;-76
2022/03/15 12:04:11;;;;;;;18.90;14.73;;;;;;;;;;5084575;28;20035;-77
2022/03/15 12:06:37;;;;;;;21.13;16.52;;;;;;;;;;5087963;28;20023;-76
2022/03/15 12:09:11;;;;;;;27.10;21.92;;;;;;;;;;5080760;28;20101;-75
2022/03/15 12:11:39;;;;;;;31.17;23.80;;;;;;;;;;5079304;28;20036;-76
2022/03/15 12:14:11;;;;;;;30.67;25.08;;;;;;;;;;5080491;28;20024;-76
2022/03/15 12:16:41;;;;;;;29.17;22.33;;;;;;;;;;5075909;28;20032;-75
2022/03/15 12:19:35;;;;;;;29.30;23.42;;;;;;;;;;5081773;28;20461;-76
2022/03/15 12:22:07;;;;;;;30.38;22.95;;;;;;;;;;5081265;28;20032;-76
2022/03/15 12:24:34;;;;;;;34.38;26.25;;;;;;;;;;5081250;28;20460;-76
2022/03/15 12:27:01;;;;;;;35.83;27.50;;;;;;;;;;5084135;28;20063;-75
2022/03/15 12:29:28;;;;;;;35.03;27.77;;;;;;;;;;5083685;28;20028;-76
2022/03/15 12:31:55;;;;;;;36.38;27.92;;;;;;;;;;5076830;28;20023;-75
2022/03/15 12:34:21;;;;;;;43.90;32.80;;;;;;;;;;5079453;28;20534;-77
2022/03/15 12:36:58;;;;;;;39.45;31.35;;;;;;;;;;5083581;28;20402;-76
2022/03/15 12:39:26;;;;;;;40.95;32.17;;;;;;;;;;5079535;28;20403;-76
2022/03/15 12:42:06;;;;;;;41.38;33.97;;;;;;;;;;5081875;28;20544;-77
2022/03/15 12:44:43;;;;;;;43.95;33.08;;;;;;;;;;5084837;28;20509;-74
2022/03/15 12:47:10;;;;;;;41.20;31.90;;;;;;;;;;5088646;28;20032;-75
2022/03/15 12:49:36;;;;;;;46.85;36.58;;;;;;;;;;5086541;28;20540;-75
2022/03/15 12:52:10;;;;;;;47.03;36.15;;;;;;;;;;5089338;28;20454;-75
2022/03/15 12:54:36;;;;;;;51.25;38.75;;;;;;;;;;5088787;28;20020;-76
2022/03/15 12:57:10;;;;;;;55.10;40.53;;;;;;;;;;5086849;28;20059;-75
2022/03/15 12:59:37;;;;;;;53.35;41.22;;;;;;;;;;5083179;28;20028;-76
2022/03/15 13:02:04;;;;;;;57.40;44.60;;;;;;;;;;5066417;28;20044;-76
2022/03/15 13:04:32;;;;;;;61.72;44.35;;;;;;;;;;5081589;28;20020;-75
2022/03/15 13:07:05;;;;;;;59.30;42.63;;;;;;;;;;5083621;28;20377;-75
2022/03/15 13:09:33;;;;;;;51.05;40.60;;;;;;;;;;5083878;28;20024;-75
2022/03/15 13:12:01;;;;;;;54.55;39.80;;;;;;;;;;5081910;28;20031;-75
2022/03/15 13:14:36;;;;;;;51.78;39.30;;;;;;;;;;5078493;28;20028;-76
2022/03/15 13:17:03;;;;;;;60.28;44.08;;;;;;;;;;5082570;28;20024;-75
2022/03/15 13:19:31;;;;;;;64.22;43.80;;;;;;;;;;5078521;28;20656;-76
2022/03/15 13:21:58;;;;;;;75.18;49.15;;;;;;;;;;5080141;28;20027;-73
2022/03/15 13:24:35;;;;;;;86.18;56.25;;;;;;;;;;5080619;28;20439;-76
2022/03/15 13:27:03;;;;;;;88.55;59.60;;;;;;;;;;5083193;28;20019;-76
2022/03/15 13:29:32;;;;;;;94.07;61.63;;;;;;;;;;5085837;28;20024;-76
2022/03/15 13:31:59;;;;;;;88.75;62.72;;;;;;;;;;5083556;28;20099;-75
2022/03/15 13:34:31;;;;;;;110.15;69.30;;;;;;;;;;5089090;28;20028;-75
2022/03/15 13:37:08;;;;;;;102.10;72.13;;;;;;;;;;5084244;28;20445;-76
2022/03/15 13:39:38;;;;;;;106.07;73.18;;;;;;;;;;5086003;28;20413;-76
2022/03/15 13:42:08;;;;;;;110.30;73.32;;;;;;;;;;5087414;28;20185;-76
2022/03/15 13:44:38;;;;;;;124.22;79.03;;;;;;;;;;5090244;28;20044;-76
2022/03/15 13:47:06;;;;;;;98.28;66.88;;;;;;;;;;5086139;28;20036;-76
2022/03/15 13:49:35;;;;;;;94.93;64.50;;;;;;;;;;5087844;28;20040;-75
2022/03/15 13:52:07;;;;;;;96.32;63.13;;;;;;;;;;5084476;28;20524;-75
2022/03/15 13:55:00;;;;;;;85.40;57.72;;;;;;;;;;5087338;28;20024;-75
2022/03/15 13:57:41;;;;;;;93.03;64.22;;;;;;;;;;5086309;28;20028;-75
2022/03/15 14:00:18;;;;;;;85.78;59.72;;;;;;;;;;5081124;28;20026;-75
2022/03/15 14:02:49;;;;;;;95.70;62.70;;;;;;;;;;5085018;28;20028;-75
2022/03/15 14:05:18;;;;;;;93.85;62.15;;;;;;;;;;5084149;28;20533;-75
2022/03/15 14:07:45;;;;;;;95.32;60.03;;;;;;;;;;5084535;28;20404;-75
2022/03/15 14:10:14;;;;;;;97.80;64.13;;;;;;;;;;5085899;28;20035;-75
2022/03/15 14:12:42;;;;;;;97.60;63.35;;;;;;;;;;5084260;28;20036;-75
2022/03/15 14:15:11;;;;;;;105.65;67.10;;;;;;;;;;5089464;28;20036;-75
2022/03/15 14:17:48;;;;;;;104.03;66.15;;;;;;;;;;5091392;28;20039;-74
2022/03/15 14:20:15;;;;;;;106.43;68.40;;;;;;;;;;5085330;28;20028;-75
2022/03/15 14:22:48;;;;;;;104.75;66.40;;;;;;;;;;5069523;28;20074;-74